sensor_id;sensor_type;location;lat;lon;timestamp;P1;durP1;ratioP1;P2;durP2;ratioP2
60873;SDS011;46715;40.642;-7.920;2023-04-03T00:01:07;7.60;;;4.80;;
60873;SDS011;46715;40.642;-7.920;2023-04-03T00:03:09;10.60;;;5.20;;
60873;SDS011;46715;40.642;-7.920;2023-04-03T00:05:10;8.83;;;4.57;;
60873;SDS011;46715;40.642;-7.920;2023-04-03T00:07:11;10.87;;;4.90;;
60873;SDS011;46715;40.642;-7.920;2023-04-03T00:09:12;9.70;;;5.18;;
60873;SDS011;46715;40.642;-7.920;2023-04-03T00:11:13;9.73;;;5.30;;
60873;SDS011;46715;40.642;-7.920;2023-04-03T00:13:14;6.97;;;4.33;;
60873;SDS011;46715;40.642;-7.920;2023-04-03T00:15:16;9.43;;;4.80;;
60873;SDS011;46715;40.642;-7.920;2023-04-03T00:17:17;10.82;;;4.88;;
60873;SDS011;46715;40.642;-7.920;2023-04-03T00:19:18;11.43;;;5.00;;
60873;SDS011;46715;40.642;-7.920;2023-04-03T00:21:19;9.60;;;4.63;;
60873;SDS011;46715;40.642;-7.920;2023-04-03T00:23:19;9.17;;;4.37;;
60873;SDS011;46715;40.642;-7.920;2023-04-03T00:25:20;7.80;;;4.67;;
60873;SDS011;46715;40.642;-7.920;2023-04-03T00:27:22;8.80;;;4.40;;
60873;SDS011;46715;40.642;-7.920;2023-04-03T00:29:23;6.67;;;3.87;;
60873;SDS011;46715;40.642;-7.920;2023-04-03T00:31:23;7.60;;;4.27;;
60873;SDS011;46715;40.642;-7.920;2023-04-03T00:33:26;12.35;;;4.97;;
60873;SDS011;46715;40.642;-7.920;2023-04-03T00:35:27;9.20;;;4.83;;
60873;SDS011;46715;40.642;-7.920;2023-04-03T00:37:29;8.07;;;4.10;;
60873;SDS011;46715;40.642;-7.920;2023-04-03T00:39:32;9.10;;;4.72;;
60873;SDS011;46715;40.642;-7.920;2023-04-03T00:41:32;5.90;;;4.17;;
60873;SDS011;46715;40.642;-7.920;2023-04-03T00:43:34;6.20;;;3.90;;
60873;SDS011;46715;40.642;-7.920;2023-04-03T00:45:36;5.55;;;4.05;;
60873;SDS011;46715;40.642;-7.920;2023-04-03T00:47:40;7.57;;;4.25;;
60873;SDS011;46715;40.642;-7.920;2023-04-03T00:49:42;8.65;;;4.55;;
60873;SDS011;46715;40.642;-7.920;2023-04-03T00:51:47;10.00;;;4.75;;
60873;SDS011;46715;40.642;-7.920;2023-04-03T00:53:53;6.23;;;4.70;;
60873;SDS011;46715;40.642;-7.920;2023-04-03T00:55:58;8.20;;;4.55;;
60873;SDS011;46715;40.642;-7.920;2023-04-03T00:58:00;7.85;;;4.25;;
60873;SDS011;46715;40.642;-7.920;2023-04-03T01:00:06;8.70;;;4.38;;
60873;SDS011;46715;40.642;-7.920;2023-04-03T01:02:09;6.28;;;4.10;;
60873;SDS011;46715;40.642;-7.920;2023-04-03T01:04:26;8.30;;;4.10;;
60873;SDS011;46715;40.642;-7.920;2023-04-03T01:06:35;8.23;;;4.50;;
60873;SDS011;46715;40.642;-7.920;2023-04-03T01:08:40;8.70;;;4.40;;
60873;SDS011;46715;40.642;-7.920;2023-04-03T01:10:41;5.80;;;3.83;;
60873;SDS011;46715;40.642;-7.920;2023-04-03T01:12:44;10.02;;;4.50;;
60873;SDS011;46715;40.642;-7.920;2023-04-03T01:14:49;6.32;;;3.80;;
60873;SDS011;46715;40.642;-7.920;2023-04-03T01:16:55;8.02;;;4.28;;
60873;SDS011;46715;40.642;-7.920;2023-04-03T01:18:57;8.02;;;4.60;;
60873;SDS011;46715;40.642;-7.920;2023-04-03T01:23:38;7.90;;;3.60;;
60873;SDS011;46715;40.642;-7.920;2023-04-03T01:25:54;6.15;;;3.58;;
60873;SDS011;46715;40.642;-7.920;2023-04-03T01:27:56;6.65;;;4.15;;
60873;SDS011;46715;40.642;-7.920;2023-04-03T01:29:57;8.43;;;4.20;;
60873;SDS011;46715;40.642;-7.920;2023-04-03T01:32:00;8.00;;;3.83;;
60873;SDS011;46715;40.642;-7.920;2023-04-03T01:34:02;8.90;;;3.85;;
60873;SDS011;46715;40.642;-7.920;2023-04-03T01:36:05;6.40;;;3.83;;
60873;SDS011;46715;40.642;-7.920;2023-04-03T01:40:08;10.77;;;3.95;;
60873;SDS011;46715;40.642;-7.920;2023-04-03T01:42:09;7.15;;;4.03;;
60873;SDS011;46715;40.642;-7.920;2023-04-03T01:44:15;6.35;;;3.88;;
60873;SDS011;46715;40.642;-7.920;2023-04-03T01:46:16;7.53;;;3.97;;
60873;SDS011;46715;40.642;-7.920;2023-04-03T01:48:18;7.40;;;4.25;;
60873;SDS011;46715;40.642;-7.920;2023-04-03T01:50:19;6.80;;;3.92;;
60873;SDS011;46715;40.642;-7.920;2023-04-03T01:52:20;9.23;;;4.27;;
60873;SDS011;46715;40.642;-7.920;2023-04-03T01:54:21;8.70;;;4.40;;
60873;SDS011;46715;40.642;-7.920;2023-04-03T01:56:21;5.87;;;3.80;;
60873;SDS011;46715;40.642;-7.920;2023-04-03T01:58:22;7.88;;;3.85;;
60873;SDS011;46715;40.642;-7.920;2023-04-03T02:00:26;9.43;;;4.15;;
60873;SDS011;46715;40.642;-7.920;2023-04-03T02:02:27;7.40;;;4.10;;
60873;SDS011;46715;40.642;-7.920;2023-04-03T02:04:27;8.60;;;3.83;;
60873;SDS011;46715;40.642;-7.920;2023-04-03T02:06:28;7.73;;;3.90;;
60873;SDS011;46715;40.642;-7.920;2023-04-03T02:08:30;8.95;;;4.15;;
60873;SDS011;46715;40.642;-7.920;2023-04-03T02:10:31;4.65;;;3.58;;
60873;SDS011;46715;40.642;-7.920;2023-04-03T02:12:32;10.33;;;4.17;;
60873;SDS011;46715;40.642;-7.920;2023-04-03T02:14:33;6.87;;;3.60;;
60873;SDS011;46715;40.642;-7.920;2023-04-03T02:16:34;8.73;;;3.80;;
60873;SDS011;46715;40.642;-7.920;2023-04-03T02:18:35;9.67;;;4.30;;
60873;SDS011;46715;40.642;-7.920;2023-04-03T02:20:36;5.38;;;3.47;;
60873;SDS011;46715;40.642;-7.920;2023-04-03T02:22:39;7.63;;;3.70;;
60873;SDS011;46715;40.642;-7.920;2023-04-03T02:24:39;7.80;;;3.90;;
60873;SDS011;46715;40.642;-7.920;2023-04-03T02:26:41;7.00;;;3.42;;
60873;SDS011;46715;40.642;-7.920;2023-04-03T02:28:42;6.27;;;3.63;;
60873;SDS011;46715;40.642;-7.920;2023-04-03T02:30:43;5.13;;;2.80;;
60873;SDS011;46715;40.642;-7.920;2023-04-03T02:32:45;7.55;;;3.55;;
60873;SDS011;46715;40.642;-7.920;2023-04-03T02:34:46;4.60;;;2.80;;
60873;SDS011;46715;40.642;-7.920;2023-04-03T02:36:48;7.43;;;2.83;;
60873;SDS011;46715;40.642;-7.920;2023-04-03T02:38:50;5.63;;;3.65;;
60873;SDS011;46715;40.642;-7.920;2023-04-03T02:40:51;4.90;;;3.30;;
60873;SDS011;46715;40.642;-7.920;2023-04-03T02:42:52;5.30;;;3.53;;
60873;SDS011;46715;40.642;-7.920;2023-04-03T02:44:54;6.10;;;3.30;;
60873;SDS011;46715;40.642;-7.920;2023-04-03T02:46:56;5.28;;;3.45;;
60873;SDS011;46715;40.642;-7.920;2023-04-03T02:48:57;6.10;;;3.67;;
60873;SDS011;46715;40.642;-7.920;2023-04-03T02:50:58;5.95;;;3.63;;
60873;SDS011;46715;40.642;-7.920;2023-04-03T02:52:59;8.37;;;3.80;;
60873;SDS011;46715;40.642;-7.920;2023-04-03T02:55:00;5.13;;;3.40;;
60873;SDS011;46715;40.642;-7.920;2023-04-03T02:57:01;6.73;;;3.40;;
60873;SDS011;46715;40.642;-7.920;2023-04-03T02:59:02;6.55;;;3.03;;
60873;SDS011;46715;40.642;-7.920;2023-04-03T03:01:04;6.38;;;3.15;;
60873;SDS011;46715;40.642;-7.920;2023-04-03T03:03:05;5.83;;;3.23;;
60873;SDS011;46715;40.642;-7.920;2023-04-03T03:05:06;4.83;;;3.83;;
60873;SDS011;46715;40.642;-7.920;2023-04-03T03:07:07;4.78;;;3.13;;
60873;SDS011;46715;40.642;-7.920;2023-04-03T03:09:08;7.93;;;3.97;;
60873;SDS011;46715;40.642;-7.920;2023-04-03T03:11:09;5.50;;;3.23;;
60873;SDS011;46715;40.642;-7.920;2023-04-03T03:13:10;7.50;;;3.28;;
60873;SDS011;46715;40.642;-7.920;2023-04-03T03:15:11;6.13;;;2.97;;
60873;SDS011;46715;40.642;-7.920;2023-04-03T03:17:12;8.33;;;3.00;;
60873;SDS011;46715;40.642;-7.920;2023-04-03T03:19:13;8.07;;;3.17;;
60873;SDS011;46715;40.642;-7.920;2023-04-03T03:21:14;7.10;;;3.07;;
60873;SDS011;46715;40.642;-7.920;2023-04-03T03:23:15;6.82;;;3.45;;
60873;SDS011;46715;40.642;-7.920;2023-04-03T03:25:15;5.50;;;2.93;;
60873;SDS011;46715;40.642;-7.920;2023-04-03T03:27:16;5.33;;;3.13;;
60873;SDS011;46715;40.642;-7.920;2023-04-03T03:29:17;9.83;;;3.43;;
60873;SDS011;46715;40.642;-7.920;2023-04-03T03:31:19;4.40;;;3.08;;
60873;SDS011;46715;40.642;-7.920;2023-04-03T03:33:19;4.67;;;2.93;;
60873;SDS011;46715;40.642;-7.920;2023-04-03T03:35:20;5.63;;;3.13;;
60873;SDS011;46715;40.642;-7.920;2023-04-03T03:37:21;6.57;;;3.50;;
60873;SDS011;46715;40.642;-7.920;2023-04-03T03:39:22;4.07;;;2.83;;
60873;SDS011;46715;40.642;-7.920;2023-04-03T03:41:23;4.47;;;2.93;;
60873;SDS011;46715;40.642;-7.920;2023-04-03T03:43:24;5.70;;;3.45;;
60873;SDS011;46715;40.642;-7.920;2023-04-03T03:45:27;6.25;;;3.25;;
60873;SDS011;46715;40.642;-7.920;2023-04-03T03:47:28;8.53;;;2.97;;
60873;SDS011;46715;40.642;-7.920;2023-04-03T03:51:31;5.20;;;3.07;;
60873;SDS011;46715;40.642;-7.920;2023-04-03T03:53:32;5.60;;;2.93;;
60873;SDS011;46715;40.642;-7.920;2023-04-03T03:55:38;3.80;;;2.50;;
60873;SDS011;46715;40.642;-7.920;2023-04-03T03:57:38;3.73;;;2.90;;
60873;SDS011;46715;40.642;-7.920;2023-04-03T03:59:40;4.13;;;2.88;;
60873;SDS011;46715;40.642;-7.920;2023-04-03T04:03:42;7.63;;;2.65;;
60873;SDS011;46715;40.642;-7.920;2023-04-03T04:05:46;5.10;;;2.70;;
60873;SDS011;46715;40.642;-7.920;2023-04-03T04:07:48;4.80;;;3.17;;
60873;SDS011;46715;40.642;-7.920;2023-04-03T04:09:49;5.93;;;2.80;;
60873;SDS011;46715;40.642;-7.920;2023-04-03T04:11:49;5.73;;;2.80;;
60873;SDS011;46715;40.642;-7.920;2023-04-03T04:13:51;4.38;;;2.72;;
60873;SDS011;46715;40.642;-7.920;2023-04-03T04:15:55;5.47;;;2.97;;
60873;SDS011;46715;40.642;-7.920;2023-04-03T04:17:56;7.57;;;2.70;;
60873;SDS011;46715;40.642;-7.920;2023-04-03T04:19:57;5.67;;;2.27;;
60873;SDS011;46715;40.642;-7.920;2023-04-03T04:21:58;2.73;;;2.27;;
60873;SDS011;46715;40.642;-7.920;2023-04-03T04:23:59;5.20;;;2.78;;
60873;SDS011;46715;40.642;-7.920;2023-04-03T04:26:00;7.07;;;3.40;;
60873;SDS011;46715;40.642;-7.920;2023-04-03T04:28:06;3.22;;;2.35;;
60873;SDS011;46715;40.642;-7.920;2023-04-03T04:30:07;5.13;;;2.70;;
60873;SDS011;46715;40.642;-7.920;2023-04-03T04:32:09;5.45;;;2.60;;
60873;SDS011;46715;40.642;-7.920;2023-04-03T04:34:10;5.47;;;2.80;;
60873;SDS011;46715;40.642;-7.920;2023-04-03T04:36:13;3.55;;;2.45;;
60873;SDS011;46715;40.642;-7.920;2023-04-03T04:38:17;3.97;;;2.08;;
60873;SDS011;46715;40.642;-7.920;2023-04-03T04:40:17;3.37;;;2.10;;
60873;SDS011;46715;40.642;-7.920;2023-04-03T04:42:18;5.60;;;2.20;;
60873;SDS011;46715;40.642;-7.920;2023-04-03T04:44:22;3.90;;;2.33;;
60873;SDS011;46715;40.642;-7.920;2023-04-03T04:46:23;4.10;;;2.50;;
60873;SDS011;46715;40.642;-7.920;2023-04-03T04:48:28;3.72;;;2.38;;
60873;SDS011;46715;40.642;-7.920;2023-04-03T04:50:29;7.47;;;2.67;;
60873;SDS011;46715;40.642;-7.920;2023-04-03T04:52:31;3.47;;;2.50;;
60873;SDS011;46715;40.642;-7.920;2023-04-03T04:54:32;4.63;;;2.30;;
60873;SDS011;46715;40.642;-7.920;2023-04-03T04:56:35;3.40;;;2.17;;
60873;SDS011;46715;40.642;-7.920;2023-04-03T04:58:36;2.93;;;2.33;;
60873;SDS011;46715;40.642;-7.920;2023-04-03T05:00:37;7.78;;;2.58;;
60873;SDS011;46715;40.642;-7.920;2023-04-03T05:02:38;4.17;;;2.37;;
60873;SDS011;46715;40.642;-7.920;2023-04-03T05:04:39;5.70;;;2.28;;
60873;SDS011;46715;40.642;-7.920;2023-04-03T05:06:46;3.55;;;2.22;;
60873;SDS011;46715;40.642;-7.920;2023-04-03T05:08:52;5.25;;;2.50;;
60873;SDS011;46715;40.642;-7.920;2023-04-03T05:10:54;4.68;;;2.75;;
60873;SDS011;46715;40.642;-7.920;2023-04-03T05:12:55;3.35;;;2.00;;
60873;SDS011;46715;40.642;-7.920;2023-04-03T05:14:56;7.13;;;2.50;;
60873;SDS011;46715;40.642;-7.920;2023-04-03T05:16:58;2.92;;;1.98;;
60873;SDS011;46715;40.642;-7.920;2023-04-03T05:19:03;3.42;;;2.50;;
60873;SDS011;46715;40.642;-7.920;2023-04-03T05:21:06;4.03;;;2.17;;
60873;SDS011;46715;40.642;-7.920;2023-04-03T05:23:06;3.87;;;2.17;;
60873;SDS011;46715;40.642;-7.920;2023-04-03T05:25:09;3.90;;;2.13;;
60873;SDS011;46715;40.642;-7.920;2023-04-03T05:27:11;3.25;;;2.15;;
60873;SDS011;46715;40.642;-7.920;2023-04-03T05:29:16;5.68;;;2.28;;
60873;SDS011;46715;40.642;-7.920;2023-04-03T05:31:17;3.40;;;2.17;;
60873;SDS011;46715;40.642;-7.920;2023-04-03T05:33:18;4.85;;;2.53;;
60873;SDS011;46715;40.642;-7.920;2023-04-03T05:35:24;4.50;;;2.17;;
60873;SDS011;46715;40.642;-7.920;2023-04-03T05:37:29;5.40;;;2.30;;
60873;SDS011;46715;40.642;-7.920;2023-04-03T05:39:31;5.03;;;2.40;;
60873;SDS011;46715;40.642;-7.920;2023-04-03T05:41:37;5.28;;;2.28;;
60873;SDS011;46715;40.642;-7.920;2023-04-03T05:43:38;4.37;;;2.37;;
60873;SDS011;46715;40.642;-7.920;2023-04-03T05:45:42;5.63;;;2.30;;
60873;SDS011;46715;40.642;-7.920;2023-04-03T05:49:45;5.43;;;2.00;;
60873;SDS011;46715;40.642;-7.920;2023-04-03T05:51:48;5.82;;;2.33;;
60873;SDS011;46715;40.642;-7.920;2023-04-03T05:56:22;4.85;;;2.20;;
60873;SDS011;46715;40.642;-7.920;2023-04-03T05:58:23;3.67;;;2.20;;
60873;SDS011;46715;40.642;-7.920;2023-04-03T06:00:26;4.63;;;2.83;;
60873;SDS011;46715;40.642;-7.920;2023-04-03T06:02:34;3.15;;;2.13;;
60873;SDS011;46715;40.642;-7.920;2023-04-03T06:04:35;5.10;;;2.15;;
60873;SDS011;46715;40.642;-7.920;2023-04-03T06:06:43;3.53;;;2.03;;
60873;SDS011;46715;40.642;-7.920;2023-04-03T06:08:46;4.75;;;2.17;;
60873;SDS011;46715;40.642;-7.920;2023-04-03T06:10:49;6.47;;;2.42;;
60873;SDS011;46715;40.642;-7.920;2023-04-03T06:12:51;8.23;;;2.85;;
60873;SDS011;46715;40.642;-7.920;2023-04-03T06:14:53;4.13;;;2.47;;
60873;SDS011;46715;40.642;-7.920;2023-04-03T06:16:53;5.30;;;2.67;;
60873;SDS011;46715;40.642;-7.920;2023-04-03T06:18:55;6.63;;;2.63;;
60873;SDS011;46715;40.642;-7.920;2023-04-03T06:20:56;5.93;;;2.53;;
60873;SDS011;46715;40.642;-7.920;2023-04-03T06:22:58;5.32;;;2.83;;
60873;SDS011;46715;40.642;-7.920;2023-04-03T06:24:59;8.57;;;2.97;;
60873;SDS011;46715;40.642;-7.920;2023-04-03T06:27:00;4.13;;;2.43;;
60873;SDS011;46715;40.642;-7.920;2023-04-03T06:29:01;6.87;;;2.90;;
60873;SDS011;46715;40.642;-7.920;2023-04-03T06:31:02;4.15;;;2.38;;
60873;SDS011;46715;40.642;-7.920;2023-04-03T06:33:03;7.90;;;2.60;;
60873;SDS011;46715;40.642;-7.920;2023-04-03T06:35:04;7.83;;;2.93;;
60873;SDS011;46715;40.642;-7.920;2023-04-03T06:37:10;9.95;;;2.60;;
60873;SDS011;46715;40.642;-7.920;2023-04-03T06:39:19;3.28;;;2.30;;
60873;SDS011;46715;40.642;-7.920;2023-04-03T06:41:22;3.28;;;2.30;;
60873;SDS011;46715;40.642;-7.920;2023-04-03T06:43:23;5.77;;;2.63;;
60873;SDS011;46715;40.642;-7.920;2023-04-03T06:45:25;9.05;;;2.97;;
60873;SDS011;46715;40.642;-7.920;2023-04-03T06:47:26;5.93;;;3.10;;
60873;SDS011;46715;40.642;-7.920;2023-04-03T06:49:26;6.03;;;3.73;;
60873;SDS011;46715;40.642;-7.920;2023-04-03T06:51:28;10.20;;;3.75;;
60873;SDS011;46715;40.642;-7.920;2023-04-03T06:53:30;9.05;;;3.40;;
60873;SDS011;46715;40.642;-7.920;2023-04-03T06:57:33;8.80;;;4.43;;
60873;SDS011;46715;40.642;-7.920;2023-04-03T06:59:34;12.50;;;4.37;;
60873;SDS011;46715;40.642;-7.920;2023-04-03T07:01:36;7.47;;;3.97;;
60873;SDS011;46715;40.642;-7.920;2023-04-03T07:03:37;7.43;;;3.77;;
60873;SDS011;46715;40.642;-7.920;2023-04-03T07:05:40;6.15;;;3.22;;
60873;SDS011;46715;40.642;-7.920;2023-04-03T07:07:42;4.32;;;2.60;;
60873;SDS011;46715;40.642;-7.920;2023-04-03T07:09:43;5.43;;;2.77;;
60873;SDS011;46715;40.642;-7.920;2023-04-03T07:11:45;5.55;;;2.70;;
60873;SDS011;46715;40.642;-7.920;2023-04-03T07:13:45;5.60;;;2.70;;
60873;SDS011;46715;40.642;-7.920;2023-04-03T07:15:47;5.50;;;2.40;;
60873;SDS011;46715;40.642;-7.920;2023-04-03T07:17:50;3.33;;;1.88;;
60873;SDS011;46715;40.642;-7.920;2023-04-03T07:19:51;4.33;;;2.20;;
60873;SDS011;46715;40.642;-7.920;2023-04-03T07:21:52;3.97;;;2.10;;
60873;SDS011;46715;40.642;-7.920;2023-04-03T07:23:54;7.00;;;2.30;;
60873;SDS011;46715;40.642;-7.920;2023-04-03T07:25:56;5.63;;;2.22;;
60873;SDS011;46715;40.642;-7.920;2023-04-03T07:27:57;6.53;;;2.30;;
60873;SDS011;46715;40.642;-7.920;2023-04-03T07:29:57;5.33;;;2.10;;
60873;SDS011;46715;40.642;-7.920;2023-04-03T07:31:58;2.63;;;1.67;;
60873;SDS011;46715;40.642;-7.920;2023-04-03T07:33:59;4.27;;;2.10;;
60873;SDS011;46715;40.642;-7.920;2023-04-03T07:36:02;5.22;;;2.05;;
60873;SDS011;46715;40.642;-7.920;2023-04-03T07:38:03;3.30;;;1.48;;
60873;SDS011;46715;40.642;-7.920;2023-04-03T07:40:05;5.90;;;1.98;;
60873;SDS011;46715;40.642;-7.920;2023-04-03T07:42:06;6.53;;;2.40;;
60873;SDS011;46715;40.642;-7.920;2023-04-03T07:44:07;5.93;;;2.10;;
60873;SDS011;46715;40.642;-7.920;2023-04-03T07:46:10;9.25;;;2.38;;
60873;SDS011;46715;40.642;-7.920;2023-04-03T07:48:11;6.05;;;2.60;;
60873;SDS011;46715;40.642;-7.920;2023-04-03T07:50:12;5.32;;;2.50;;
60873;SDS011;46715;40.642;-7.920;2023-04-03T07:52:13;4.57;;;1.90;;
60873;SDS011;46715;40.642;-7.920;2023-04-03T07:54:17;3.80;;;1.95;;
60873;SDS011;46715;40.642;-7.920;2023-04-03T07:56:18;5.10;;;2.40;;
60873;SDS011;46715;40.642;-7.920;2023-04-03T07:58:19;5.47;;;2.67;;
60873;SDS011;46715;40.642;-7.920;2023-04-03T08:00:20;6.18;;;2.30;;
60873;SDS011;46715;40.642;-7.920;2023-04-03T08:02:20;7.07;;;2.05;;
60873;SDS011;46715;40.642;-7.920;2023-04-03T08:04:21;4.25;;;2.40;;
60873;SDS011;46715;40.642;-7.920;2023-04-03T08:06:23;4.40;;;2.20;;
60873;SDS011;46715;40.642;-7.920;2023-04-03T08:08:24;3.95;;;2.13;;
60873;SDS011;46715;40.642;-7.920;2023-04-03T08:10:25;3.47;;;2.20;;
60873;SDS011;46715;40.642;-7.920;2023-04-03T08:12:32;5.22;;;1.90;;
60873;SDS011;46715;40.642;-7.920;2023-04-03T08:14:33;4.03;;;1.93;;
60873;SDS011;46715;40.642;-7.920;2023-04-03T08:16:37;3.85;;;2.35;;
60873;SDS011;46715;40.642;-7.920;2023-04-03T08:18:38;4.72;;;2.03;;
60873;SDS011;46715;40.642;-7.920;2023-04-03T08:20:40;4.00;;;1.52;;
60873;SDS011;46715;40.642;-7.920;2023-04-03T08:22:41;4.40;;;2.20;;
60873;SDS011;46715;40.642;-7.920;2023-04-03T08:24:41;4.47;;;2.00;;
60873;SDS011;46715;40.642;-7.920;2023-04-03T08:26:42;4.67;;;2.10;;
60873;SDS011;46715;40.642;-7.920;2023-04-03T08:28:43;6.07;;;1.80;;
60873;SDS011;46715;40.642;-7.920;2023-04-03T08:30:44;2.83;;;1.60;;
60873;SDS011;46715;40.642;-7.920;2023-04-03T08:32:46;4.50;;;1.80;;
60873;SDS011;46715;40.642;-7.920;2023-04-03T08:34:47;4.40;;;1.90;;
60873;SDS011;46715;40.642;-7.920;2023-04-03T08:36:48;3.45;;;2.08;;
60873;SDS011;46715;40.642;-7.920;2023-04-03T08:38:50;3.35;;;1.55;;
60873;SDS011;46715;40.642;-7.920;2023-04-03T08:41:52;5.78;;;1.98;;
60873;SDS011;46715;40.642;-7.920;2023-04-03T08:43:47;5.00;;;2.20;;
60873;SDS011;46715;40.642;-7.920;2023-04-03T08:45:58;4.35;;;1.50;;
60873;SDS011;46715;40.642;-7.920;2023-04-03T08:48:21;3.22;;;1.83;;
60873;SDS011;46715;40.642;-7.920;2023-04-03T08:50:36;4.50;;;1.20;;
60873;SDS011;46715;40.642;-7.920;2023-04-03T08:52:41;3.05;;;1.35;;
60873;SDS011;46715;40.642;-7.920;2023-04-03T08:54:57;2.78;;;1.60;;
60873;SDS011;46715;40.642;-7.920;2023-04-03T08:57:04;2.92;;;1.40;;
60873;SDS011;46715;40.642;-7.920;2023-04-03T08:59:09;4.40;;;1.40;;
60873;SDS011;46715;40.642;-7.920;2023-04-03T09:01:21;3.10;;;1.50;;
60873;SDS011;46715;40.642;-7.920;2023-04-03T09:03:34;3.88;;;1.13;;
60873;SDS011;46715;40.642;-7.920;2023-04-03T09:05:43;2.75;;;1.30;;
60873;SDS011;46715;40.642;-7.920;2023-04-03T09:07:47;4.75;;;1.70;;
60873;SDS011;46715;40.642;-7.920;2023-04-03T09:09:52;2.83;;;1.45;;
60873;SDS011;46715;40.642;-7.920;2023-04-03T09:12:19;5.45;;;1.48;;
60873;SDS011;46715;40.642;-7.920;2023-04-03T09:18:48;3.42;;;1.50;;
60873;SDS011;46715;40.642;-7.920;2023-04-03T09:23:30;4.28;;;1.25;;
60873;SDS011;46715;40.642;-7.920;2023-04-03T09:25:38;2.72;;;1.55;;
60873;SDS011;46715;40.642;-7.920;2023-04-03T09:27:41;4.75;;;1.80;;
60873;SDS011;46715;40.642;-7.920;2023-04-03T09:29:43;4.80;;;1.63;;
60873;SDS011;46715;40.642;-7.920;2023-04-03T09:31:48;2.08;;;1.17;;
60873;SDS011;46715;40.642;-7.920;2023-04-03T09:33:57;4.47;;;1.63;;
60873;SDS011;46715;40.642;-7.920;2023-04-03T09:36:02;5.13;;;1.30;;
60873;SDS011;46715;40.642;-7.920;2023-04-03T09:42:28;5.68;;;1.60;;
60873;SDS011;46715;40.642;-7.920;2023-04-03T09:44:35;4.22;;;1.75;;
60873;SDS011;46715;40.642;-7.920;2023-04-03T09:46:38;7.80;;;1.70;;
60873;SDS011;46715;40.642;-7.920;2023-04-03T09:48:52;5.22;;;1.48;;
60873;SDS011;46715;40.642;-7.920;2023-04-03T09:50:58;4.90;;;1.40;;
60873;SDS011;46715;40.642;-7.920;2023-04-03T09:53:06;7.60;;;1.85;;
60873;SDS011;46715;40.642;-7.920;2023-04-03T09:55:26;3.90;;;1.58;;
60873;SDS011;46715;40.642;-7.920;2023-04-03T09:57:32;4.25;;;1.58;;
60873;SDS011;46715;40.642;-7.920;2023-04-03T09:59:33;8.63;;;1.65;;
60873;SDS011;46715;40.642;-7.920;2023-04-03T10:01:35;2.83;;;1.27;;
60873;SDS011;46715;40.642;-7.920;2023-04-03T10:03:37;2.70;;;1.27;;
60873;SDS011;46715;40.642;-7.920;2023-04-03T10:05:41;3.22;;;1.50;;
60873;SDS011;46715;40.642;-7.920;2023-04-03T10:07:42;6.28;;;1.42;;
60873;SDS011;46715;40.642;-7.920;2023-04-03T10:09:44;3.55;;;1.20;;
60873;SDS011;46715;40.642;-7.920;2023-04-03T10:12:04;8.68;;;1.55;;
60873;SDS011;46715;40.642;-7.920;2023-04-03T10:14:16;5.28;;;1.20;;
60873;SDS011;46715;40.642;-7.920;2023-04-03T10:16:18;3.30;;;1.30;;
60873;SDS011;46715;40.642;-7.920;2023-04-03T10:21:06;4.97;;;1.42;;
60873;SDS011;46715;40.642;-7.920;2023-04-03T10:23:21;3.65;;;1.35;;
60873;SDS011;46715;40.642;-7.920;2023-04-03T10:25:33;4.75;;;1.33;;
60873;SDS011;46715;40.642;-7.920;2023-04-03T10:27:45;2.67;;;1.13;;
60873;SDS011;46715;40.642;-7.920;2023-04-03T10:34:43;5.30;;;1.55;;
60873;SDS011;46715;40.642;-7.920;2023-04-03T10:41:04;3.70;;;1.38;;
60873;SDS011;46715;40.642;-7.920;2023-04-03T10:43:56;2.78;;;1.15;;
60873;SDS011;46715;40.642;-7.920;2023-04-03T10:45:56;3.70;;;1.10;;
60873;SDS011;46715;40.642;-7.920;2023-04-03T10:48:11;2.25;;;1.30;;
60873;SDS011;46715;40.642;-7.920;2023-04-03T10:50:26;4.55;;;1.20;;
60873;SDS011;46715;40.642;-7.920;2023-04-03T10:52:57;4.70;;;1.40;;
60873;SDS011;46715;40.642;-7.920;2023-04-03T10:55:51;2.88;;;1.40;;
60873;SDS011;46715;40.642;-7.920;2023-04-03T10:57:36;15.85;;;2.65;;
60873;SDS011;46715;40.642;-7.920;2023-04-03T11:01:50;3.45;;;1.58;;
60873;SDS011;46715;40.642;-7.920;2023-04-03T11:03:58;4.45;;;1.52;;
60873;SDS011;46715;40.642;-7.920;2023-04-03T11:06:01;2.63;;;1.20;;
60873;SDS011;46715;40.642;-7.920;2023-04-03T11:10:45;3.50;;;1.55;;
60873;SDS011;46715;40.642;-7.920;2023-04-03T11:12:52;2.78;;;1.27;;
60873;SDS011;46715;40.642;-7.920;2023-04-03T11:15:00;3.00;;;1.50;;
60873;SDS011;46715;40.642;-7.920;2023-04-03T11:19:25;3.38;;;2.40;;
60873;SDS011;46715;40.642;-7.920;2023-04-03T11:21:57;4.13;;;1.70;;
60873;SDS011;46715;40.642;-7.920;2023-04-03T11:24:02;2.00;;;1.23;;
60873;SDS011;46715;40.642;-7.920;2023-04-03T11:26:11;4.38;;;1.50;;
60873;SDS011;46715;40.642;-7.920;2023-04-03T11:28:15;2.85;;;1.35;;
60873;SDS011;46715;40.642;-7.920;2023-04-03T11:30:18;2.50;;;1.27;;
60873;SDS011;46715;40.642;-7.920;2023-04-03T11:34:44;4.68;;;1.30;;
60873;SDS011;46715;40.642;-7.920;2023-04-03T11:36:49;5.85;;;1.30;;
60873;SDS011;46715;40.642;-7.920;2023-04-03T11:39:35;4.50;;;1.52;;
60873;SDS011;46715;40.642;-7.920;2023-04-03T11:41:38;3.13;;;1.30;;
60873;SDS011;46715;40.642;-7.920;2023-04-03T11:43:53;1.95;;;0.95;;
60873;SDS011;46715;40.642;-7.920;2023-04-03T11:46:04;3.58;;;1.25;;
60873;SDS011;46715;40.642;-7.920;2023-04-03T11:48:42;3.83;;;1.42;;
60873;SDS011;46715;40.642;-7.920;2023-04-03T11:54:43;3.13;;;1.75;;
60873;SDS011;46715;40.642;-7.920;2023-04-03T11:56:47;6.43;;;1.40;;
60873;SDS011;46715;40.642;-7.920;2023-04-03T12:01:10;5.22;;;1.77;;
60873;SDS011;46715;40.642;-7.920;2023-04-03T12:04:18;2.05;;;1.35;;
60873;SDS011;46715;40.642;-7.920;2023-04-03T12:10:33;2.92;;;1.10;;
60873;SDS011;46715;40.642;-7.920;2023-04-03T12:12:37;2.92;;;1.15;;
60873;SDS011;46715;40.642;-7.920;2023-04-03T12:14:40;2.85;;;1.13;;
60873;SDS011;46715;40.642;-7.920;2023-04-03T12:16:42;4.07;;;0.85;;
60873;SDS011;46715;40.642;-7.920;2023-04-03T12:20:53;1.90;;;0.90;;
60873;SDS011;46715;40.642;-7.920;2023-04-03T12:23:08;2.38;;;0.90;;
60873;SDS011;46715;40.642;-7.920;2023-04-03T12:27:50;1.83;;;0.90;;
60873;SDS011;46715;40.642;-7.920;2023-04-03T12:36:33;3.08;;;1.00;;
60873;SDS011;46715;40.642;-7.920;2023-04-03T12:38:45;3.47;;;1.35;;
60873;SDS011;46715;40.642;-7.920;2023-04-03T12:40:52;1.58;;;0.90;;
60873;SDS011;46715;40.642;-7.920;2023-04-03T12:45:10;1.58;;;0.95;;
60873;SDS011;46715;40.642;-7.920;2023-04-03T12:47:25;2.03;;;1.00;;
60873;SDS011;46715;40.642;-7.920;2023-04-03T12:53:45;3.22;;;1.10;;
60873;SDS011;46715;40.642;-7.920;2023-04-03T12:57:48;2.80;;;1.30;;
60873;SDS011;46715;40.642;-7.920;2023-04-03T12:59:49;6.95;;;1.38;;
60873;SDS011;46715;40.642;-7.920;2023-04-03T13:01:57;1.90;;;1.02;;
60873;SDS011;46715;40.642;-7.920;2023-04-03T13:04:00;4.10;;;1.20;;
60873;SDS011;46715;40.642;-7.920;2023-04-03T13:06:01;2.70;;;1.20;;
60873;SDS011;46715;40.642;-7.920;2023-04-03T13:08:05;2.50;;;1.13;;
60873;SDS011;46715;40.642;-7.920;2023-04-03T13:10:16;3.03;;;1.10;;
60873;SDS011;46715;40.642;-7.920;2023-04-03T13:12:21;2.08;;;1.17;;
60873;SDS011;46715;40.642;-7.920;2023-04-03T13:14:22;2.10;;;0.90;;
60873;SDS011;46715;40.642;-7.920;2023-04-03T13:16:32;2.17;;;1.00;;
60873;SDS011;46715;40.642;-7.920;2023-04-03T13:20:36;3.65;;;1.30;;
60873;SDS011;46715;40.642;-7.920;2023-04-03T13:22:40;3.85;;;1.25;;
60873;SDS011;46715;40.642;-7.920;2023-04-03T13:24:56;2.55;;;1.23;;
60873;SDS011;46715;40.642;-7.920;2023-04-03T13:26:59;3.25;;;1.50;;
60873;SDS011;46715;40.642;-7.920;2023-04-03T13:29:03;1.58;;;0.90;;
60873;SDS011;46715;40.642;-7.920;2023-04-03T13:31:25;3.00;;;1.17;;
60873;SDS011;46715;40.642;-7.920;2023-04-03T13:33:31;2.22;;;1.02;;
60873;SDS011;46715;40.642;-7.920;2023-04-03T13:35:38;2.60;;;1.27;;
60873;SDS011;46715;40.642;-7.920;2023-04-03T13:37:52;2.15;;;0.88;;